sensor_id;sensor_type;location;lat;lon;timestamp;pressure;altitude;pressure_sealevel;temperature;humidity
33163;BME280;29282;45.656;11.302;2023-07-13T00:01:41;98238.44;;;26.13;55.76
33163;BME280;29282;45.656;11.302;2023-07-13T00:04:08;98255.09;;;26.13;56.00
33163;BME280;29282;45.656;11.302;2023-07-13T00:06:39;98287.22;;;26.14;55.81
33163;BME280;29282;45.656;11.302;2023-07-13T00:09:05;98386.00;;;26.15;55.71
33163;BME280;29282;45.656;11.302;2023-07-13T00:11:32;98555.03;;;26.16;55.78
33163;BME280;29282;45.656;11.302;2023-07-13T00:14:01;98372.13;;;26.15;55.87
33163;BME280;29282;45.656;11.302;2023-07-13T00:16:29;98315.34;;;26.12;55.77
33163;BME280;29282;45.656;11.302;2023-07-13T00:18:58;98274.09;;;26.11;56.10
33163;BME280;29282;45.656;11.302;2023-07-13T00:21:45;98234.03;;;26.08;55.86
33163;BME280;29282;45.656;11.302;2023-07-13T00:24:13;98203.09;;;26.06;56.01
33163;BME280;29282;45.656;11.302;2023-07-13T00:26:49;98184.03;;;26.05;56.20
33163;BME280;29282;45.656;11.302;2023-07-13T00:29:15;98158.25;;;26.04;56.14
33163;BME280;29282;45.656;11.302;2023-07-13T00:31:47;98136.03;;;26.04;56.07
33163;BME280;29282;45.656;11.302;2023-07-13T00:34:17;98129.69;;;26.04;56.01
33163;BME280;29282;45.656;11.302;2023-07-13T00:36:46;98124.94;;;26.04;56.32
33163;BME280;29282;45.656;11.302;2023-07-13T00:39:12;98106.69;;;26.03;56.18
33163;BME280;29282;45.656;11.302;2023-07-13T00:41:46;98076.94;;;26.04;56.29
33163;BME280;29282;45.656;11.302;2023-07-13T00:44:19;98076.16;;;26.03;56.20
33163;BME280;29282;45.656;11.302;2023-07-13T00:46:49;98059.50;;;26.03;56.00
33163;BME280;29282;45.656;11.302;2023-07-13T00:49:29;98067.84;;;26.03;56.30
33163;BME280;29282;45.656;11.302;2023-07-13T00:52:07;98063.06;;;26.04;56.40
33163;BME280;29282;45.656;11.302;2023-07-13T00:54:49;98062.28;;;26.03;56.17
33163;BME280;29282;45.656;11.302;2023-07-13T00:57:18;98069.41;;;26.04;56.04
33163;BME280;29282;45.656;11.302;2023-07-13T00:59:57;98070.63;;;26.03;56.09
33163;BME280;29282;45.656;11.302;2023-07-13T01:02:44;98074.97;;;26.04;56.45
33163;BME280;29282;45.656;11.302;2023-07-13T01:07:57;98086.44;;;26.02;55.97
33163;BME280;29282;45.656;11.302;2023-07-13T01:10:33;98093.22;;;26.05;56.36
33163;BME280;29282;45.656;11.302;2023-07-13T01:13:15;98102.72;;;26.04;56.15
33163;BME280;29282;45.656;11.302;2023-07-13T01:15:58;98108.28;;;26.04;55.83
33163;BME280;29282;45.656;11.302;2023-07-13T01:18:30;98107.50;;;26.04;56.16
33163;BME280;29282;45.656;11.302;2023-07-13T01:20:59;98111.06;;;26.04;55.99
33163;BME280;29282;45.656;11.302;2023-07-13T01:23:35;98121.38;;;26.04;56.17
33163;BME280;29282;45.656;11.302;2023-07-13T01:26:19;98118.59;;;26.04;56.23
33163;BME280;29282;45.656;11.302;2023-07-13T01:28:53;98136.03;;;26.04;56.14
33163;BME280;29282;45.656;11.302;2023-07-13T01:31:21;98138.81;;;26.04;56.17
33163;BME280;29282;45.656;11.302;2023-07-13T01:33:47;98146.34;;;26.04;56.08
33163;BME280;29282;45.656;11.302;2023-07-13T01:36:19;98157.47;;;26.04;56.09
33163;BME280;29282;45.656;11.302;2023-07-13T01:38:49;98160.25;;;26.04;56.04
33163;BME280;29282;45.656;11.302;2023-07-13T01:41:15;98152.69;;;26.04;56.09
33163;BME280;29282;45.656;11.302;2023-07-13T01:43:47;98166.59;;;26.04;56.27
33163;BME280;29282;45.656;11.302;2023-07-13T01:46:21;98158.25;;;26.04;55.98
33163;BME280;29282;45.656;11.302;2023-07-13T01:48:54;98160.25;;;26.04;55.88
33163;BME280;29282;45.656;11.302;2023-07-13T01:51:23;98172.13;;;26.04;56.08
33163;BME280;29282;45.656;11.302;2023-07-13T01:54:30;98170.56;;;26.03;56.26
33163;BME280;29282;45.656;11.302;2023-07-13T01:56:56;98154.69;;;26.04;56.08
33163;BME280;29282;45.656;11.302;2023-07-13T01:59:25;98167.78;;;26.03;56.17
33163;BME280;29282;45.656;11.302;2023-07-13T02:01:51;98173.31;;;26.03;56.28
33163;BME280;29282;45.656;11.302;2023-07-13T02:04:19;98168.56;;;26.04;56.20
33163;BME280;29282;45.656;11.302;2023-07-13T02:06:51;98171.34;;;26.04;56.33
33163;BME280;29282;45.656;11.302;2023-07-13T02:09:17;98167.78;;;26.03;56.20
33163;BME280;29282;45.656;11.302;2023-07-13T02:11:52;98167.78;;;26.03;55.99
33163;BME280;29282;45.656;11.302;2023-07-13T02:14:18;98164.19;;;26.02;55.98
33163;BME280;29282;45.656;11.302;2023-07-13T02:16:47;98162.22;;;26.03;56.25
33163;BME280;29282;45.656;11.302;2023-07-13T02:19:19;98159.81;;;26.01;56.07
33163;BME280;29282;45.656;11.302;2023-07-13T02:21:45;98159.81;;;26.01;56.08
33163;BME280;29282;45.656;11.302;2023-07-13T02:24:11;98159.81;;;26.01;56.20
33163;BME280;29282;45.656;11.302;2023-07-13T02:26:47;98165.38;;;26.01;55.97
33163;BME280;29282;45.656;11.302;2023-07-13T02:29:16;98177.28;;;26.02;56.23
33163;BME280;29282;45.656;11.302;2023-07-13T02:31:42;98172.91;;;26.01;56.03
33163;BME280;29282;45.656;11.302;2023-07-13T02:34:11;98175.28;;;26.02;56.13
33163;BME280;29282;45.656;11.302;2023-07-13T02:36:40;98172.91;;;26.01;56.00
33163;BME280;29282;45.656;11.302;2023-07-13T02:39:13;98182.03;;;26.01;56.38
33163;BME280;29282;45.656;11.302;2023-07-13T02:41:45;98184.81;;;26.01;56.28
33163;BME280;29282;45.656;11.302;2023-07-13T02:44:14;98170.94;;;26.01;56.21
33163;BME280;29282;45.656;11.302;2023-07-13T02:46:43;98183.22;;;26.00;56.23
33163;BME280;29282;45.656;11.302;2023-07-13T02:49:20;98182.03;;;26.01;56.31
33163;BME280;29282;45.656;11.302;2023-07-13T02:51:52;98189.56;;;26.01;56.30
33163;BME280;29282;45.656;11.302;2023-07-13T02:54:27;98183.22;;;26.00;56.29
33163;BME280;29282;45.656;11.302;2023-07-13T02:57:01;98178.47;;;26.01;56.07
33163;BME280;29282;45.656;11.302;2023-07-13T02:59:29;98173.69;;;26.01;56.20
33163;BME280;29282;45.656;11.302;2023-07-13T03:01:58;98178.88;;;25.99;56.32
33163;BME280;29282;45.656;11.302;2023-07-13T03:04:29;98186.00;;;26.00;56.36
33163;BME280;29282;45.656;11.302;2023-07-13T03:07:00;98188.78;;;26.00;56.30
33163;BME280;29282;45.656;11.302;2023-07-13T03:09:33;98201.06;;;25.99;56.58
33163;BME280;29282;45.656;11.302;2023-07-13T03:12:05;98189.97;;;25.99;56.41
33163;BME280;29282;45.656;11.302;2023-07-13T03:14:31;98199.09;;;26.00;56.47
33163;BME280;29282;45.656;11.302;2023-07-13T03:17:00;98200.25;;;25.99;56.48
33163;BME280;29282;45.656;11.302;2023-07-13T03:19:29;98201.06;;;25.99;56.62
33163;BME280;29282;45.656;11.302;2023-07-13T03:21:58;98205.81;;;25.99;56.63
33163;BME280;29282;45.656;11.302;2023-07-13T03:24:23;98202.25;;;25.98;56.78
33163;BME280;29282;45.656;11.302;2023-07-13T03:26:51;98214.13;;;25.99;56.34
33163;BME280;29282;45.656;11.302;2023-07-13T03:29:17;98213.34;;;25.98;56.53
33163;BME280;29282;45.656;11.302;2023-07-13T03:31:45;98207.78;;;25.98;56.60
33163;BME280;29282;45.656;11.302;2023-07-13T03:34:17;98203.44;;;25.97;56.52
33163;BME280;29282;45.656;11.302;2023-07-13T03:36:43;98212.56;;;25.98;56.67
33163;BME280;29282;45.656;11.302;2023-07-13T03:39:18;98220.88;;;25.98;56.55
33163;BME280;29282;45.656;11.302;2023-07-13T03:41:52;98208.97;;;25.97;56.61
33163;BME280;29282;45.656;11.302;2023-07-13T03:44:24;98210.56;;;25.98;56.64
33163;BME280;29282;45.656;11.302;2023-07-13T03:46:53;98216.50;;;25.97;56.38
33163;BME280;29282;45.656;11.302;2023-07-13T03:49:27;98217.31;;;25.97;56.56
33163;BME280;29282;45.656;11.302;2023-07-13T03:51:53;98219.28;;;25.97;56.42
33163;BME280;29282;45.656;11.302;2023-07-13T03:54:31;98223.66;;;25.98;56.42
33163;BME280;29282;45.656;11.302;2023-07-13T03:56:58;98228.41;;;25.97;56.69
33163;BME280;29282;45.656;11.302;2023-07-13T03:59:24;98233.97;;;25.97;56.65
33163;BME280;29282;45.656;11.302;2023-07-13T04:01:52;98231.97;;;25.98;56.64
33163;BME280;29282;45.656;11.302;2023-07-13T04:04:23;98237.53;;;25.98;56.61
33163;BME280;29282;45.656;11.302;2023-07-13T04:06:52;98235.94;;;25.97;56.69
33163;BME280;29282;45.656;11.302;2023-07-13T04:09:18;98233.97;;;25.97;56.58
33163;BME280;29282;45.656;11.302;2023-07-13T04:11:47;98237.53;;;25.98;56.62
33163;BME280;29282;45.656;11.302;2023-07-13T04:14:29;98223.66;;;25.98;56.51
33163;BME280;29282;45.656;11.302;2023-07-13T04:16:54;98227.22;;;25.98;56.42
33163;BME280;29282;45.656;11.302;2023-07-13T04:19:29;98226.81;;;25.96;56.31
33163;BME280;29282;45.656;11.302;2023-07-13T04:21:55;98224.84;;;25.97;56.53
33163;BME280;29282;45.656;11.302;2023-07-13T04:24:24;98217.31;;;25.97;56.63
33163;BME280;29282;45.656;11.302;2023-07-13T04:26:52;98216.50;;;25.97;56.62
33163;BME280;29282;45.656;11.302;2023-07-13T04:29:27;98213.75;;;25.97;56.55
33163;BME280;29282;45.656;11.302;2023-07-13T04:31:52;98226.44;;;25.98;56.64
33163;BME280;29282;45.656;11.302;2023-07-13T04:34:26;98225.63;;;25.97;56.56
33163;BME280;29282;45.656;11.302;2023-07-13T04:36:55;98220.09;;;25.97;56.50
33163;BME280;29282;45.656;11.302;2023-07-13T04:39:24;98215.31;;;25.98;56.24
33163;BME280;29282;45.656;11.302;2023-07-13T04:41:52;98221.66;;;25.98;56.29
33163;BME280;29282;45.656;11.302;2023-07-13T04:44:24;98221.66;;;25.98;56.32
33163;BME280;29282;45.656;11.302;2023-07-13T04:46:53;98227.22;;;25.98;56.47
33163;BME280;29282;45.656;11.302;2023-07-13T04:49:22;98239.94;;;25.99;56.30
33163;BME280;29282;45.656;11.302;2023-07-13T04:51:47;98239.13;;;25.99;56.20
33163;BME280;29282;45.656;11.302;2023-07-13T04:54:13;98253.00;;;25.99;56.17
33163;BME280;29282;45.656;11.302;2023-07-13T04:56:39;98243.88;;;25.98;56.38
33163;BME280;29282;45.656;11.302;2023-07-13T04:59:08;98245.50;;;25.99;56.31
33163;BME280;29282;45.656;11.302;2023-07-13T05:01:33;98241.88;;;25.99;56.37
33163;BME280;29282;45.656;11.302;2023-07-13T05:04:02;98251.41;;;25.98;56.49
33163;BME280;29282;45.656;11.302;2023-07-13T05:06:28;98260.53;;;25.98;56.24
33163;BME280;29282;45.656;11.302;2023-07-13T05:08:58;98255.78;;;25.99;56.32
33163;BME280;29282;45.656;11.302;2023-07-13T05:11:27;98254.97;;;25.98;56.28
33163;BME280;29282;45.656;11.302;2023-07-13T05:13:55;98245.50;;;25.99;56.27
33163;BME280;29282;45.656;11.302;2023-07-13T05:16:21;98268.84;;;25.98;56.57
33163;BME280;29282;45.656;11.302;2023-07-13T05:18:50;98267.69;;;25.99;56.48
33163;BME280;29282;45.656;11.302;2023-07-13T05:21:18;98258.97;;;26.01;56.01
33163;BME280;29282;45.656;11.302;2023-07-13T05:23:44;98268.84;;;25.98;56.38
33163;BME280;29282;45.656;11.302;2023-07-13T05:26:11;98276.41;;;25.98;56.35
33163;BME280;29282;45.656;11.302;2023-07-13T05:28:40;98281.16;;;25.97;56.61
33163;BME280;29282;45.656;11.302;2023-07-13T05:31:08;98267.28;;;25.97;57.07
33163;BME280;29282;45.656;11.302;2023-07-13T05:33:37;98279.16;;;25.98;56.67
33163;BME280;29282;45.656;11.302;2023-07-13T05:36:03;98281.16;;;25.97;56.79
33163;BME280;29282;45.656;11.302;2023-07-13T05:38:29;98275.59;;;25.97;56.80
33163;BME280;29282;45.656;11.302;2023-07-13T05:41:07;98274.41;;;25.98;56.69
33163;BME280;29282;45.656;11.302;2023-07-13T05:43:35;98272.81;;;25.97;56.58
33163;BME280;29282;45.656;11.302;2023-07-13T05:46:02;98275.59;;;25.97;56.62
33163;BME280;29282;45.656;11.302;2023-07-13T05:48:33;98275.97;;;25.96;56.79
33163;BME280;29282;45.656;11.302;2023-07-13T05:51:02;98278.22;;;25.80;57.10
33163;BME280;29282;45.656;11.302;2023-07-13T05:53:34;98270.50;;;25.59;57.65
33163;BME280;29282;45.656;11.302;2023-07-13T05:56:00;98274.44;;;24.23;61.08
33163;BME280;29282;45.656;11.302;2023-07-13T05:58:26;98274.25;;;23.62;62.53
33163;BME280;29282;45.656;11.302;2023-07-13T06:01:08;98283.47;;;23.47;63.33
33163;BME280;29282;45.656;11.302;2023-07-13T06:03:35;98281.63;;;24.54;59.76
33163;BME280;29282;45.656;11.302;2023-07-13T06:06:13;98287.16;;;24.01;61.70
33163;BME280;29282;45.656;11.302;2023-07-13T06:11:42;98272.28;;;23.40;64.32
33163;BME280;29282;45.656;11.302;2023-07-13T06:14:10;98259.59;;;23.81;62.95
33163;BME280;29282;45.656;11.302;2023-07-13T06:16:40;98263.09;;;24.05;62.54
33163;BME280;29282;45.656;11.302;2023-07-13T06:19:08;98263.31;;;24.46;61.02
33163;BME280;29282;45.656;11.302;2023-07-13T06:21:37;98256.38;;;24.63;60.85
33163;BME280;29282;45.656;11.302;2023-07-13T06:24:06;98253.13;;;24.27;62.27
33163;BME280;29282;45.656;11.302;2023-07-13T06:26:38;98264.44;;;24.41;61.62
33163;BME280;29282;45.656;11.302;2023-07-13T06:29:10;98261.06;;;24.55;61.66
33163;BME280;29282;45.656;11.302;2023-07-13T06:31:50;98257.56;;;24.61;61.39
33163;BME280;29282;45.656;11.302;2023-07-13T06:34:19;98265.41;;;24.56;61.72
33163;BME280;29282;45.656;11.302;2023-07-13T06:36:48;98267.94;;;24.68;60.73
33163;BME280;29282;45.656;11.302;2023-07-13T06:39:14;98255.09;;;24.87;60.09
33163;BME280;29282;45.656;11.302;2023-07-13T06:41:40;98264.34;;;24.98;60.28
33163;BME280;29282;45.656;11.302;2023-07-13T06:44:12;98264.84;;;25.07;59.86
33163;BME280;29282;45.656;11.302;2023-07-13T06:46:38;98267.56;;;25.03;59.46
33163;BME280;29282;45.656;11.302;2023-07-13T06:49:07;98272.09;;;24.85;60.88
33163;BME280;29282;45.656;11.302;2023-07-13T06:51:36;98271.50;;;25.02;60.34
33163;BME280;29282;45.656;11.302;2023-07-13T06:54:05;98272.03;;;25.12;59.79
33163;BME280;29282;45.656;11.302;2023-07-13T06:56:34;98267.75;;;25.18;59.86
33163;BME280;29282;45.656;11.302;2023-07-13T06:59:02;98257.88;;;25.20;59.79
33163;BME280;29282;45.656;11.302;2023-07-13T07:01:28;98257.50;;;25.25;59.88
33163;BME280;29282;45.656;11.302;2023-07-13T07:03:57;98262.31;;;25.28;59.51
33163;BME280;29282;45.656;11.302;2023-07-13T07:06:23;98261.81;;;24.85;61.04
33163;BME280;29282;45.656;11.302;2023-07-13T07:08:52;98258.06;;;25.04;60.17
33163;BME280;29282;45.656;11.302;2023-07-13T07:11:23;98258.28;;;25.22;60.24
33163;BME280;29282;45.656;11.302;2023-07-13T07:13:53;98266.28;;;25.31;59.86
33163;BME280;29282;45.656;11.302;2023-07-13T07:16:20;98252.84;;;25.33;59.75
33163;BME280;29282;45.656;11.302;2023-07-13T07:19:13;98262.00;;;24.39;63.32
33163;BME280;29282;45.656;11.302;2023-07-13T07:21:38;98260.94;;;24.78;61.92
33163;BME280;29282;45.656;11.302;2023-07-13T07:24:05;98255.75;;;25.10;60.70
33163;BME280;29282;45.656;11.302;2023-07-13T07:26:34;98270.63;;;25.28;59.24
33163;BME280;29282;45.656;11.302;2023-07-13T07:29:00;98259.25;;;25.41;59.47
33163;BME280;29282;45.656;11.302;2023-07-13T07:31:26;98260.06;;;25.45;59.77
33163;BME280;29282;45.656;11.302;2023-07-13T07:33:51;98268.44;;;25.48;59.40
33163;BME280;29282;45.656;11.302;2023-07-13T07:36:17;98279.16;;;25.50;59.29
33163;BME280;29282;45.656;11.302;2023-07-13T07:38:43;98289.44;;;25.49;59.53
33163;BME280;29282;45.656;11.302;2023-07-13T07:41:12;98290.97;;;25.43;59.71
33163;BME280;29282;45.656;11.302;2023-07-13T07:43:42;98298.91;;;25.45;59.92
33163;BME280;29282;45.656;11.302;2023-07-13T07:46:07;98291.81;;;25.47;59.42
33163;BME280;29282;45.656;11.302;2023-07-13T07:48:45;98290.56;;;25.41;59.86
33163;BME280;29282;45.656;11.302;2023-07-13T07:51:14;98290.59;;;25.45;59.34
33163;BME280;29282;45.656;11.302;2023-07-13T07:53:42;98306.91;;;25.50;59.48
33163;BME280;29282;45.656;11.302;2023-07-13T07:56:09;98314.03;;;25.51;59.04
33163;BME280;29282;45.656;11.302;2023-07-13T07:58:35;98320.34;;;25.48;59.84
33163;BME280;29282;45.656;11.302;2023-07-13T08:01:07;98316.25;;;25.35;60.52
33163;BME280;29282;45.656;11.302;2023-07-13T08:03:36;98335.03;;;25.15;62.14
33163;BME280;29282;45.656;11.302;2023-07-13T08:06:02;98323.81;;;25.04;62.32
33163;BME280;29282;45.656;11.302;2023-07-13T08:08:28;98319.03;;;24.71;63.49
33163;BME280;29282;45.656;11.302;2023-07-13T08:10:53;98306.22;;;24.93;62.69
33163;BME280;29282;45.656;11.302;2023-07-13T08:13:19;98323.16;;;25.14;62.23
33163;BME280;29282;45.656;11.302;2023-07-13T08:15:57;98323.31;;;25.28;60.81
33163;BME280;29282;45.656;11.302;2023-07-13T08:18:23;98327.41;;;25.42;60.24
33163;BME280;29282;45.656;11.302;2023-07-13T08:20:49;98326.06;;;24.95;62.47
33163;BME280;29282;45.656;11.302;2023-07-13T08:23:21;98333.34;;;24.23;65.09
33163;BME280;29282;45.656;11.302;2023-07-13T08:25:55;98326.16;;;24.42;64.20
33163;BME280;29282;45.656;11.302;2023-07-13T08:28:30;98316.00;;;24.83;62.61
33163;BME280;29282;45.656;11.302;2023-07-13T08:31:06;98304.47;;;25.11;61.65
33163;BME280;29282;45.656;11.302;2023-07-13T08:33:34;98299.94;;;25.29;60.76
33163;BME280;29282;45.656;11.302;2023-07-13T08:36:01;98295.69;;;25.39;60.32
33163;BME280;29282;45.656;11.302;2023-07-13T08:38:33;98289.00;;;25.44;59.99
33163;BME280;29282;45.656;11.302;2023-07-13T08:41:17;98288.25;;;25.47;60.62
33163;BME280;29282;45.656;11.302;2023-07-13T08:43:51;98286.66;;;25.49;60.14
33163;BME280;29282;45.656;11.302;2023-07-13T08:49:02;98265.56;;;25.38;60.93
33163;BME280;29282;45.656;11.302;2023-07-13T08:54:41;98249.78;;;25.45;61.16
33163;BME280;29282;45.656;11.302;2023-07-13T08:57:16;98254.19;;;25.50;60.64
33163;BME280;29282;45.656;11.302;2023-07-13T08:59:46;98266.88;;;25.51;60.50
33163;BME280;29282;45.656;11.302;2023-07-13T09:02:45;98275.56;;;25.49;60.21
33163;BME280;29282;45.656;11.302;2023-07-13T09:05:28;98283.53;;;25.51;60.14
33163;BME280;29282;45.656;11.302;2023-07-13T09:10:58;98303.56;;;25.34;59.96
33163;BME280;29282;45.656;11.302;2023-07-13T09:16:10;98305.25;;;25.45;59.48
33163;BME280;29282;45.656;11.302;2023-07-13T09:19:04;98307.66;;;25.47;58.90
33163;BME280;29282;45.656;11.302;2023-07-13T09:21:37;98289.81;;;25.44;59.26
33163;BME280;29282;45.656;11.302;2023-07-13T09:26:56;98288.56;;;25.42;59.53
33163;BME280;29282;45.656;11.302;2023-07-13T09:29:37;98288.25;;;25.47;59.21
33163;BME280;29282;45.656;11.302;2023-07-13T09:32:12;98296.88;;;25.38;59.16
33163;BME280;29282;45.656;11.302;2023-07-13T09:34:52;98314.72;;;25.07;60.13
33163;BME280;29282;45.656;11.302;2023-07-13T09:37:30;98297.13;;;25.26;59.45
33163;BME280;29282;45.656;11.302;2023-07-13T09:40:00;98300.78;;;25.34;59.31
33163;BME280;29282;45.656;11.302;2023-07-13T09:42:29;98316.31;;;25.42;58.88
33163;BME280;29282;45.656;11.302;2023-07-13T09:44:59;98317.13;;;25.46;58.89
33163;BME280;29282;45.656;11.302;2023-07-13T09:47:32;98306.03;;;25.46;59.09
33163;BME280;29282;45.656;11.302;2023-07-13T09:50:17;98292.84;;;25.32;59.78
33163;BME280;29282;45.656;11.302;2023-07-13T09:52:52;98297.16;;;25.29;59.76
33163;BME280;29282;45.656;11.302;2023-07-13T09:55:35;98284.41;;;25.21;59.96
33163;BME280;29282;45.656;11.302;2023-07-13T09:58:18;98289.78;;;25.07;60.50
33163;BME280;29282;45.656;11.302;2023-07-13T10:01:04;98292.78;;;25.25;59.85
33163;BME280;29282;45.656;11.302;2023-07-13T10:03:37;98275.44;;;25.35;59.44
33163;BME280;29282;45.656;11.302;2023-07-13T10:06:15;98274.34;;;25.43;59.45
33163;BME280;29282;45.656;11.302;2023-07-13T10:08:41;98268.44;;;25.48;59.20
33163;BME280;29282;45.656;11.302;2023-07-13T10:11:28;98275.19;;;25.51;59.10
33163;BME280;29282;45.656;11.302;2023-07-13T10:14:19;98274.00;;;25.52;58.94
33163;BME280;29282;45.656;11.302;2023-07-13T10:16:50;98287.13;;;25.55;59.02
33163;BME280;29282;45.656;11.302;2023-07-13T10:19:32;98259.28;;;25.44;59.38
33163;BME280;29282;45.656;11.302;2023-07-13T10:25:01;98245.06;;;25.49;59.38
33163;BME280;29282;45.656;11.302;2023-07-13T10:27:35;98230.84;;;25.54;58.81
33163;BME280;29282;45.656;11.302;2023-07-13T10:32:52;98224.13;;;25.59;58.76
33163;BME280;29282;45.656;11.302;2023-07-13T10:35:21;98230.09;;;25.61;58.74
33163;BME280;29282;45.656;11.302;2023-07-13T10:38:12;98230.13;;;25.65;58.50
33163;BME280;29282;45.656;11.302;2023-07-13T10:40:40;98242.03;;;25.69;58.35
33163;BME280;29282;45.656;11.302;2023-07-13T10:43:57;98236.13;;;25.70;58.16
33163;BME280;29282;45.656;11.302;2023-07-13T10:46:30;98231.72;;;25.69;58.27
33163;BME280;29282;45.656;11.302;2023-07-13T10:49:07;98224.59;;;25.68;58.12
33163;BME280;29282;45.656;11.302;2023-07-13T10:51:42;98229.03;;;25.73;57.94
33163;BME280;29282;45.656;11.302;2023-07-13T10:54:26;98236.53;;;25.76;57.73
33163;BME280;29282;45.656;11.302;2023-07-13T10:57:20;98240.94;;;25.77;57.86
33163;BME280;29282;45.656;11.302;2023-07-13T10:59:49;98236.16;;;25.74;57.35
33163;BME280;29282;45.656;11.302;2023-07-13T11:02:34;98221.81;;;25.65;57.58
33163;BME280;29282;45.656;11.302;2023-07-13T11:05:31;98205.97;;;25.69;57.59
33163;BME280;29282;45.656;11.302;2023-07-13T11:08:23;98213.94;;;25.74;57.52
33163;BME280;29282;45.656;11.302;2023-07-13T11:11:00;98219.88;;;25.72;57.17
33163;BME280;29282;45.656;11.302;2023-07-13T11:19:23;98224.69;;;25.79;56.89
33163;BME280;29282;45.656;11.302;2023-07-13T11:22:15;98229.47;;;25.82;56.63
33163;BME280;29282;45.656;11.302;2023-07-13T11:24:56;98245.34;;;25.82;56.60
33163;BME280;29282;45.656;11.302;2023-07-13T11:38:30;98227.91;;;25.81;56.63
33163;BME280;29282;45.656;11.302;2023-07-13T11:41:04;98229.88;;;25.81;56.37
33163;BME280;29282;45.656;11.302;2023-07-13T11:43:33;98224.34;;;25.81;56.47
33163;BME280;29282;45.656;11.302;2023-07-13T11:46:15;98214.44;;;25.83;56.24
33163;BME280;29282;45.656;11.302;2023-07-13T11:48:42;98215.25;;;25.84;56.39
33163;BME280;29282;45.656;11.302;2023-07-13T11:53:51;98204.94;;;25.84;56.39
33163;BME280;29282;45.656;11.302;2023-07-13T11:56:17;98209.69;;;25.84;56.64
33163;BME280;29282;45.656;11.302;2023-07-13T11:58:43;98211.28;;;25.85;56.54
33163;BME280;29282;45.656;11.302;2023-07-13T12:01:25;98207.31;;;25.86;56.24
33163;BME280;29282;45.656;11.302;2023-07-13T12:04:00;98209.28;;;25.85;56.69
33163;BME280;29282;45.656;11.302;2023-07-13T12:06:34;98200.97;;;25.85;56.74
33163;BME280;29282;45.656;11.302;2023-07-13T12:09:20;98203.75;;;25.85;56.82
33163;BME280;29282;45.656;11.302;2023-07-13T12:11:51;98205.72;;;25.85;56.65
33163;BME280;29282;45.656;11.302;2023-07-13T12:14:19;98191.84;;;25.85;56.54
33163;BME280;29282;45.656;11.302;2023-07-13T12:16:46;98202.94;;;25.85;56.79
33163;BME280;29282;45.656;11.302;2023-07-13T12:19:21;98199.81;;;25.86;56.54
33163;BME280;29282;45.656;11.302;2023-07-13T12:21:50;98192.63;;;25.85;56.62
33163;BME280;29282;45.656;11.302;2023-07-13T12:24:22;98183.53;;;25.85;56.65
33163;BME280;29282;45.656;11.302;2023-07-13T12:27:02;98187.50;;;25.87;56.75
33163;BME280;29282;45.656;11.302;2023-07-13T12:29:31;98186.72;;;25.87;57.16
33163;BME280;29282;45.656;11.302;2023-07-13T12:31:58;98186.31;;;25.88;56.83
33163;BME280;29282;45.656;11.302;2023-07-13T12:34:26;98181.97;;;25.91;56.91
33163;BME280;29282;45.656;11.302;2023-07-13T12:36:58;98181.97;;;25.91;56.97
33163;BME280;29282;45.656;11.302;2023-07-13T12:44:42;98157.00;;;25.91;57.13
33163;BME280;29282;45.656;11.302;2023-07-13T12:47:12;98155.00;;;25.91;56.95
33163;BME280;29282;45.656;11.302;2023-07-13T12:49:54;98160.56;;;25.91;57.16
33163;BME280;29282;45.656;11.302;2023-07-13T12:52:32;98155.81;;;25.92;57.35
33163;BME280;29282;45.656;11.302;2023-07-13T12:55:16;98143.13;;;25.91;56.95
33163;BME280;29282;45.656;11.302;2023-07-13T12:57:50;98136.00;;;25.93;57.20
33163;BME280;29282;45.656;11.302;2023-07-13T13:00:48;98140.75;;;25.93;57.20
33163;BME280;29282;45.656;11.302;2023-07-13T13:03:22;98147.91;;;25.94;57.31
33163;BME280;29282;45.656;11.302;2023-07-13T13:05:49;98143.53;;;25.93;57.26
33163;BME280;29282;45.656;11.302;2023-07-13T13:08:15;98145.13;;;25.94;57.27
33163;BME280;29282;45.656;11.302;2023-07-13T13:10:44;98139.56;;;25.94;57.41
33163;BME280;29282;45.656;11.302;2023-07-13T13:13:13;98145.13;;;25.97;57.21
33163;BME280;29282;45.656;11.302;2023-07-13T13:15:42;98146.72;;;25.98;57.27
33163;BME280;29282;45.656;11.302;2023-07-13T13:18:26;98144.72;;;25.99;57.21
33163;BME280;29282;45.656;11.302;2023-07-13T13:21:01;98138.38;;;25.98;57.21
33163;BME280;29282;45.656;11.302;2023-07-13T13:23:39;98151.91;;;26.00;57.29
33163;BME280;29282;45.656;11.302;2023-07-13T13:26:19;98153.06;;;25.99;57.38
33163;BME280;29282;45.656;11.302;2023-07-13T13:28:51;98153.06;;;25.99;57.43
33163;BME280;29282;45.656;11.302;2023-07-13T13:31:20;98157.44;;;26.00;57.47
33163;BME280;29282;45.656;11.302;2023-07-13T13:33:52;98157.44;;;26.00;57.55
33163;BME280;29282;45.656;11.302;2023-07-13T13:36:30;98159.44;;;26.03;57.45
33163;BME280;29282;45.656;11.302;2023-07-13T13:39:02;98154.69;;;26.04;57.44
33163;BME280;29282;45.656;11.302;2023-07-13T13:41:30;98170.16;;;26.05;57.67
33163;BME280;29282;45.656;11.302;2023-07-13T13:44:01;98177.28;;;26.06;57.60
33163;BME280;29282;45.656;11.302;2023-07-13T13:46:34;98172.13;;;26.04;57.48
33163;BME280;29282;45.656;11.302;2023-07-13T13:49:03;98186.00;;;26.04;57.79
33163;BME280;29282;45.656;11.302;2023-07-13T13:51:28;98194.34;;;26.04;57.75
33163;BME280;29282;45.656;11.302;2023-07-13T13:53:58;98193.16;;;26.05;57.69
33163;BME280;29282;45.656;11.302;2023-07-13T13:56:23;98192.34;;;26.05;57.65
33163;BME280;29282;45.656;11.302;2023-07-13T13:58:51;98199.91;;;26.08;57.67
33163;BME280;29282;45.656;11.302;2023-07-13T14:01:26;98195.94;;;26.05;57.78
33163;BME280;29282;45.656;11.302;2023-07-13T14:03:54;98196.34;;;26.07;57.74
33163;BME280;29282;45.656;11.302;2023-07-13T14:06:21;98202.28;;;26.06;57.85